Terminal Aerodrome Forecast
Issued by NWS Los Angeles, CA

Home | Current Version | Previous Version | Text Only | Print | Product List | Glossary On
Versions: 1 2 3 4 5 6 7 8 9 10 11 12 13 14 15 16 17 18 19 20 21 22 23 24 25 26 27 28 29 30 31
000
FTUS46 KLOX 290301 AAA
TAFSMX
TAF AMD
KSMX 290301Z 2903/2924 30006KT P6SM SCT007
     FM290600 VRB03KT 4SM BR OVC004
     FM291600 30006KT P6SM SKC
     FM292000 30015KT P6SM SKC=

USA.gov is the U.S. government's official web portal to all federal, state and local government web resources and services.